createdAt,value
2023-03-06T00:01:23.653Z,2.78
2023-03-06T00:06:30.074Z,2.70
2023-03-06T00:11:33.416Z,2.83
2023-03-06T00:16:38.676Z,2.87
2023-03-06T00:21:42.556Z,2.90
2023-03-06T00:26:45.020Z,3.30
2023-03-06T00:31:48.227Z,2.80
2023-03-06T00:36:55.002Z,2.87
2023-03-06T00:41:57.978Z,2.20
2023-03-06T00:47:00.593Z,2.67
2023-03-06T00:52:06.388Z,3.07
2023-03-06T00:57:10.016Z,2.07
2023-03-06T01:02:14.566Z,2.63
2023-03-06T01:07:18.750Z,1.80
2023-03-06T01:12:23.503Z,2.20
2023-03-06T01:17:30.066Z,2.37
2023-03-06T01:22:32.659Z,1.73
2023-03-06T01:27:35.108Z,2.60
2023-03-06T01:32:37.712Z,1.87
2023-03-06T01:37:40.293Z,2.20
2023-03-06T01:42:42.721Z,1.70
2023-03-06T01:47:45.430Z,4.03
2023-03-06T01:52:52.259Z,1.50
2023-03-06T01:57:57.954Z,1.60
2023-03-06T02:03:10.487Z,2.20
2023-03-06T02:08:15.883Z,1.57
2023-03-06T02:13:18.075Z,1.70
2023-03-06T02:18:20.348Z,2.00
2023-03-06T02:23:34.520Z,1.53
2023-03-06T02:28:36.754Z,1.80
2023-03-06T02:33:38.929Z,1.63
2023-03-06T02:38:49.609Z,1.70
2023-03-06T02:43:53.124Z,1.43
2023-03-06T02:48:55.480Z,1.83
2023-03-06T02:53:57.629Z,1.70
2023-03-06T02:58:59.820Z,2.03
2023-03-06T03:04:03.083Z,2.03
2023-03-06T03:09:05.495Z,1.97
2023-03-06T03:14:07.752Z,1.80
2023-03-06T03:19:10.065Z,2.20
2023-03-06T03:24:13.105Z,2.27
2023-03-06T03:29:17.695Z,1.67
2023-03-06T03:34:20.065Z,1.77
2023-03-06T03:39:22.794Z,2.20
2023-03-06T03:44:25.052Z,2.30
2023-03-06T03:49:28.150Z,2.50
2023-03-06T03:54:30.544Z,2.53
2023-03-06T03:59:33.323Z,2.43
2023-03-06T04:04:49.217Z,2.40
2023-03-06T04:09:51.853Z,2.30
2023-03-06T04:14:54.624Z,2.40
2023-03-06T04:19:57.686Z,2.30
2023-03-06T04:25:00.176Z,2.67
2023-03-06T04:30:02.753Z,2.13
2023-03-06T04:35:07.309Z,2.00
2023-03-06T04:45:22.348Z,2.33
2023-03-06T04:50:25.411Z,2.40
2023-03-06T04:55:28.228Z,1.73
2023-03-06T05:00:33.227Z,2.10
2023-03-06T05:05:35.415Z,1.67
2023-03-06T05:10:37.632Z,2.17
2023-03-06T05:15:43.108Z,2.90
2023-03-06T05:20:45.593Z,3.17
2023-03-06T05:25:47.795Z,2.43
2023-03-06T05:30:50.129Z,2.80
2023-03-06T05:35:52.623Z,2.20
2023-03-06T05:40:54.987Z,2.30
2023-03-06T05:46:05.480Z,1.80
2023-03-06T05:51:07.829Z,3.10
2023-03-06T05:56:10.647Z,2.50
2023-03-06T06:01:18.205Z,2.17
2023-03-06T06:06:20.382Z,2.20
2023-03-06T06:11:22.628Z,1.90
2023-03-06T06:16:24.841Z,1.93
2023-03-06T06:21:27.096Z,2.50
2023-03-06T06:26:29.405Z,2.13
2023-03-06T06:31:32.116Z,2.20
2023-03-06T06:36:34.817Z,2.30
2023-03-06T06:41:56.941Z,2.43
2023-03-06T06:47:21.707Z,2.90
2023-03-06T06:52:22.839Z,2.30
2023-03-06T06:57:25.021Z,2.67
2023-03-06T07:02:29.365Z,3.23
2023-03-06T07:07:34.470Z,2.13
2023-03-06T07:12:37.541Z,2.27
2023-03-06T07:17:39.826Z,2.63
2023-03-06T07:22:50.931Z,1.90
2023-03-06T07:27:57.357Z,2.20
2023-03-06T07:33:00.267Z,2.00
2023-03-06T07:38:02.527Z,2.03
2023-03-06T07:43:18.416Z,1.50
2023-03-06T07:48:26.454Z,1.50
2023-03-06T07:53:29.445Z,1.57
2023-03-06T07:58:55.365Z,1.70
2023-03-06T08:04:10.995Z,1.10
2023-03-06T08:09:21.736Z,1.10
2023-03-06T08:14:29.640Z,1.30
2023-03-06T08:19:34.963Z,1.57
2023-03-06T08:24:39.031Z,1.50
2023-03-06T08:29:41.487Z,1.20
2023-03-06T08:34:45.756Z,1.63
2023-03-06T08:39:48.035Z,1.40
2023-03-06T08:44:50.830Z,1.33
2023-03-06T08:49:53.217Z,1.60
2023-03-06T08:54:55.521Z,2.10
2023-03-06T08:59:57.907Z,1.10
2023-03-06T09:05:01.565Z,1.20
2023-03-06T09:10:05.968Z,1.77
2023-03-06T09:15:09.277Z,1.60
2023-03-06T09:20:12.559Z,1.50
2023-03-06T09:25:20.390Z,3.07
2023-03-06T09:30:22.769Z,2.43
2023-03-06T09:35:25.095Z,1.73
2023-03-06T09:41:02.570Z,1.83
2023-03-06T09:46:30.246Z,1.10
2023-03-06T09:51:46.697Z,1.40
2023-03-06T09:56:50.157Z,1.30
2023-03-06T10:02:15.355Z,1.93
2023-03-06T10:07:23.106Z,1.53
2023-03-06T10:12:28.824Z,1.40
2023-03-06T10:17:36.051Z,2.00
2023-03-06T10:22:43.719Z,1.60
2023-03-06T10:27:59.802Z,1.50
2023-03-06T10:33:16.232Z,1.33
2023-03-06T10:38:48.860Z,1.10
2023-03-06T10:44:00.394Z,0.70
2023-03-06T10:49:07.126Z,0.90
2023-03-06T10:54:12.381Z,2.47
2023-03-06T10:59:28.463Z,1.00
2023-03-06T11:04:35.876Z,1.10
2023-03-06T11:09:38.536Z,0.63
2023-03-06T11:14:43.338Z,0.67
2023-03-06T11:19:45.498Z,0.70
2023-03-06T11:24:51.961Z,1.63
2023-03-06T11:29:55.834Z,0.90
2023-03-06T11:35:02.563Z,0.80
2023-03-06T11:40:11.442Z,0.97
2023-03-06T11:45:37.582Z,0.68
2023-03-06T11:50:54.391Z,0.50
2023-03-06T11:56:06.020Z,0.40
2023-03-06T12:01:28.550Z,0.70
2023-03-06T12:06:46.022Z,0.70
2023-03-06T12:12:00.255Z,0.50
2023-03-06T12:17:09.941Z,0.80
2023-03-06T12:22:31.340Z,0.60
2023-03-06T12:27:58.502Z,0.60
2023-03-06T12:33:15.902Z,0.70
2023-03-06T12:38:27.183Z,0.70
2023-03-06T12:43:32.399Z,1.10
2023-03-06T12:48:36.819Z,0.70
2023-03-06T12:53:40.816Z,0.60
2023-03-06T12:58:51.945Z,0.80
2023-03-06T13:04:30.801Z,0.80
2023-03-06T13:09:57.547Z,0.30
2023-03-06T13:15:01.433Z,0.60
2023-03-06T13:20:27.862Z,0.80
2023-03-06T13:25:50.365Z,0.50
2023-03-06T13:30:53.355Z,0.60
2023-03-06T13:36:27.937Z,0.70
2023-03-06T13:41:33.399Z,0.70
2023-03-06T13:46:38.549Z,0.50
2023-03-06T13:52:02.887Z,0.50
2023-03-06T13:57:21.208Z,0.47
2023-03-06T14:02:55.036Z,0.60
2023-03-06T14:08:25.157Z,0.43
2023-03-06T14:13:41.883Z,0.50
2023-03-06T14:18:51.496Z,0.50
2023-03-06T14:24:04.280Z,0.40
2023-03-06T14:29:22.444Z,0.63
2023-03-06T14:34:27.247Z,0.60
2023-03-06T14:39:40.893Z,0.40
2023-03-06T14:44:43.213Z,0.50
2023-03-06T14:49:45.600Z,0.53
2023-03-06T14:54:49.936Z,0.60
2023-03-06T14:59:57.004Z,0.50
2023-03-06T15:05:18.844Z,0.83
2023-03-06T15:10:24.093Z,0.60
2023-03-06T15:15:29.656Z,0.60
2023-03-06T15:20:48.433Z,0.70
2023-03-06T15:25:58.602Z,0.63
2023-03-06T15:31:10.927Z,0.50
2023-03-06T15:36:21.412Z,0.87
2023-03-06T15:41:30.571Z,0.60
2023-03-06T15:46:32.856Z,0.80
2023-03-06T15:51:35.072Z,0.90
2023-03-06T15:56:40.048Z,0.97
2023-03-06T16:01:46.086Z,1.37
2023-03-06T16:06:49.033Z,0.90
2023-03-06T16:11:51.262Z,0.90
2023-03-06T16:16:55.144Z,1.10
2023-03-06T16:21:57.732Z,1.00
2023-03-06T16:27:01.739Z,1.00
2023-03-06T16:32:05.514Z,1.07
2023-03-06T16:37:13.985Z,1.30
2023-03-06T16:42:17.915Z,1.10
2023-03-06T16:47:20.112Z,1.20
2023-03-06T16:52:22.322Z,1.00
2023-03-06T16:57:24.738Z,0.80
2023-03-06T17:02:26.974Z,1.37
2023-03-06T17:07:29.771Z,1.10
2023-03-06T17:12:32.167Z,1.50
2023-03-06T17:17:34.906Z,1.23
2023-03-06T17:22:39.025Z,1.77
2023-03-06T17:27:42.590Z,1.30
2023-03-06T17:32:44.870Z,1.20
2023-03-06T17:37:54.279Z,1.23
2023-03-06T17:42:57.156Z,1.37
2023-03-06T17:48:26.611Z,1.50
2023-03-06T18:00:53.063Z,3.93
2023-03-06T18:06:00.303Z,1.60
2023-03-06T18:11:04.475Z,1.40
2023-03-06T18:16:07.739Z,2.40
2023-03-06T18:21:12.508Z,4.20
2023-03-06T18:26:20.519Z,2.53
2023-03-06T18:31:28.990Z,1.83
2023-03-06T18:36:32.678Z,1.57
2023-03-06T18:41:35.304Z,1.80
2023-03-06T18:46:38.315Z,1.87
2023-03-06T18:51:40.604Z,1.70
2023-03-06T18:56:44.798Z,1.70
2023-03-06T19:01:47.527Z,1.60
2023-03-06T19:06:49.773Z,1.67
2023-03-06T19:11:54.472Z,1.53
2023-03-06T19:16:57.202Z,1.60
2023-03-06T19:21:59.659Z,1.63
2023-03-06T19:27:02.018Z,1.67
2023-03-06T19:32:04.504Z,1.40
2023-03-06T19:37:07.189Z,1.53
2023-03-06T19:42:11.722Z,1.53
2023-03-06T19:47:16.000Z,1.80
2023-03-06T19:52:18.536Z,1.73
2023-03-06T19:57:21.385Z,1.67
2023-03-06T20:02:26.809Z,1.90
2023-03-06T20:07:28.970Z,2.10
2023-03-06T20:12:32.882Z,1.73
2023-03-06T20:17:36.142Z,2.00
2023-03-06T20:22:38.808Z,2.00
2023-03-06T20:27:41.091Z,2.40
2023-03-06T20:32:43.366Z,1.87
2023-03-06T20:37:45.580Z,2.57
2023-03-06T20:42:47.833Z,2.67
2023-03-06T20:47:49.975Z,2.10
2023-03-06T20:52:58.774Z,2.93
2023-03-06T20:58:00.966Z,2.20
2023-03-06T21:03:03.522Z,2.20
2023-03-06T21:08:05.837Z,1.70
2023-03-06T21:13:08.446Z,1.90
2023-03-06T21:18:12.117Z,2.27
2023-03-06T21:23:14.472Z,1.60
2023-03-06T21:28:17.742Z,1.93
2023-03-06T21:33:20.990Z,2.20
2023-03-06T21:38:23.165Z,1.57
2023-03-06T21:43:25.481Z,2.10
2023-03-06T21:48:27.648Z,1.60
2023-03-06T21:53:29.876Z,1.50
2023-03-06T21:58:32.471Z,1.50
2023-03-06T22:03:34.649Z,1.10
2023-03-06T22:08:37.243Z,1.50
2023-03-06T22:13:39.643Z,1.30
2023-03-06T22:18:45.906Z,1.40
2023-03-06T22:23:52.526Z,1.40
2023-03-06T22:28:54.911Z,1.27
2023-03-06T22:33:59.477Z,1.30
2023-03-06T22:39:02.802Z,1.57
2023-03-06T22:44:05.455Z,1.00
2023-03-06T22:49:07.632Z,1.30
2023-03-06T22:54:10.390Z,1.40
2023-03-06T22:59:12.675Z,1.80
2023-03-06T23:04:14.919Z,1.37
2023-03-06T23:09:21.619Z,1.53
2023-03-06T23:14:43.860Z,1.67
2023-03-06T23:20:10.285Z,2.00
2023-03-06T23:25:31.095Z,1.43
2023-03-06T23:30:33.331Z,1.77
2023-03-06T23:35:36.939Z,2.17
2023-03-06T23:40:39.257Z,1.50
2023-03-06T23:45:41.593Z,1.60
2023-03-06T23:50:43.746Z,1.50
2023-03-06T23:55:47.850Z,1.67
